Time;durP1;ratioP1;P1;durP2;ratioP2;P2;SDS_P1;SDS_P2;PMS_P1;PMS_P2;Temp;Humidity;BMP_temperature;BMP_pressure;BME280_temperature;BME280_humidity;BME280_pressure;Samples;Min_cycle;Max_cycle;Signal;HPM_P1;HPM_P2
2024/01/18 00:00:11;;;;;;;23.90;22.48;;;-1.20;99.90;;;;;;5035142;28;20048;-86
2024/01/18 00:02:37;;;;;;;24.23;22.85;;;-1.30;99.90;;;;;;5050680;28;20120;-86
2024/01/18 00:05:02;;;;;;;23.10;21.52;;;-1.30;99.90;;;;;;5035004;28;20443;-86
2024/01/18 00:07:29;;;;;;;25.33;23.65;;;-1.20;99.90;;;;;;5046919;28;20132;-86
2024/01/18 00:09:55;;;;;;;24.52;22.73;;;-1.10;99.90;;;;;;5051333;28;20041;-86
2024/01/18 00:12:21;;;;;;;25.48;23.80;;;-1.00;99.90;;;;;;5047619;28;20036;-86
2024/01/18 00:14:47;;;;;;;28.40;26.10;;;-1.00;99.90;;;;;;5048750;28;20028;-86
2024/01/18 00:17:12;;;;;;;24.63;23.27;;;-0.90;99.90;;;;;;5026999;28;20596;-86
2024/01/18 00:19:38;;;;;;;27.83;25.75;;;-0.80;99.90;;;;;;5034331;28;20037;-86
2024/01/18 00:22:04;;;;;;;24.60;22.80;;;-0.70;99.90;;;;;;5044816;28;20024;-86
2024/01/18 00:24:29;;;;;;;25.95;24.45;;;-0.70;99.90;;;;;;5023867;28;20037;-86
2024/01/18 00:26:55;;;;;;;23.75;22.25;;;-0.60;99.90;;;;;;5031794;28;20091;-86
2024/01/18 00:29:21;;;;;;;24.75;23.23;;;-0.60;99.90;;;;;;5032194;28;20036;-86
2024/01/18 00:31:46;;;;;;;23.75;22.17;;;-0.70;99.90;;;;;;5067909;28;20051;-86
2024/01/18 00:34:12;;;;;;;21.98;20.10;;;-0.80;99.90;;;;;;5032130;28;20047;-86
2024/01/18 00:36:38;;;;;;;20.70;19.33;;;-0.80;99.90;;;;;;5041985;28;20044;-86
2024/01/18 00:39:09;;;;;;;20.63;19.35;;;-0.80;99.90;;;;;;5033802;28;20052;-87
2024/01/18 00:41:38;;;;;;;21.10;19.90;;;-0.90;99.90;;;;;;5051657;28;20466;-87
2024/01/18 00:44:04;;;;;;;20.63;19.52;;;-1.00;99.90;;;;;;5058892;28;20040;-86
2024/01/18 00:46:30;;;;;;;22.55;21.08;;;-1.10;99.90;;;;;;5033515;28;20534;-87
2024/01/18 00:48:55;;;;;;;22.70;21.27;;;-1.20;99.90;;;;;;5031671;28;20583;-87
2024/01/18 00:51:21;;;;;;;22.02;20.50;;;-1.40;99.90;;;;;;5034567;28;20127;-87
2024/01/18 00:53:47;;;;;;;21.48;19.70;;;-1.40;99.90;;;;;;5033210;28;20043;-87
2024/01/18 00:56:12;;;;;;;22.05;20.55;;;-1.40;99.90;;;;;;5050771;28;20068;-86
2024/01/18 00:58:40;;;;;;;22.48;21.08;;;-1.50;99.90;;;;;;5049751;28;20558;-87
2024/01/18 01:01:06;;;;;;;22.92;21.42;;;-1.60;99.90;;;;;;5026672;28;20435;-86
2024/01/18 01:03:32;;;;;;;21.13;19.50;;;-1.60;99.90;;;;;;5065788;28;20048;-87
2024/01/18 01:05:57;;;;;;;22.25;20.88;;;-1.70;99.90;;;;;;5034236;28;20431;-87
2024/01/18 01:08:25;;;;;;;21.83;20.52;;;-1.70;99.90;;;;;;5044282;28;20118;-87
2024/01/18 01:10:50;;;;;;;22.48;20.52;;;-1.80;99.90;;;;;;5050587;28;20033;-87
2024/01/18 01:13:16;;;;;;;21.77;20.38;;;-1.80;99.90;;;;;;5030375;28;20146;-87
2024/01/18 01:15:42;;;;;;;21.23;19.63;;;-1.80;99.90;;;;;;5031694;28;20385;-87
2024/01/18 01:18:07;;;;;;;20.67;19.33;;;-1.90;99.90;;;;;;5062139;28;20397;-87
2024/01/18 01:20:33;;;;;;;22.75;20.90;;;-1.90;99.90;;;;;;5032428;28;20123;-87
2024/01/18 01:22:59;;;;;;;21.55;20.10;;;-1.90;99.90;;;;;;5049152;28;20040;-87
2024/01/18 01:25:24;;;;;;;21.15;19.38;;;-2.00;99.90;;;;;;5033934;28;20044;-87
2024/01/18 01:27:50;;;;;;;22.17;20.35;;;-2.00;99.90;;;;;;5018781;28;20040;-87
2024/01/18 01:30:16;;;;;;;21.98;20.58;;;-2.10;99.90;;;;;;5065897;28;20051;-87
2024/01/18 01:32:41;;;;;;;20.77;19.40;;;-2.10;99.90;;;;;;5050194;28;20064;-87
2024/01/18 01:35:07;;;;;;;20.50;19.30;;;-2.20;99.90;;;;;;5047668;28;20047;-87
2024/01/18 01:37:33;;;;;;;20.55;19.25;;;-2.20;99.90;;;;;;5033405;28;20462;-86
2024/01/18 01:39:59;;;;;;;21.23;19.83;;;-2.20;99.90;;;;;;5049795;28;20041;-87
2024/01/18 01:42:24;;;;;;;19.30;18.00;;;-2.20;99.90;;;;;;5050312;28;20044;-87
2024/01/18 01:44:52;;;;;;;21.88;20.33;;;-2.30;99.90;;;;;;5033544;28;20563;-87
2024/01/18 01:47:18;;;;;;;20.50;19.20;;;-2.30;99.90;;;;;;5049668;28;20048;-86
2024/01/18 01:49:44;;;;;;;20.77;19.58;;;-2.40;99.90;;;;;;5044236;28;20091;-87
2024/01/18 01:52:11;;;;;;;20.92;19.30;;;-2.50;99.90;;;;;;5062965;28;20226;-87
2024/01/18 01:54:37;;;;;;;20.20;19.00;;;-2.50;99.90;;;;;;5040768;28;20064;-87
2024/01/18 01:57:04;;;;;;;19.40;18.10;;;-2.60;99.90;;;;;;5069186;28;20095;-87
2024/01/18 01:59:31;;;;;;;21.77;20.38;;;-2.50;99.90;;;;;;5051245;28;20386;-87
2024/01/18 02:01:58;;;;;;;21.75;20.33;;;-2.60;99.90;;;;;;5026159;28;20052;-87
2024/01/18 02:04:24;;;;;;;20.98;19.77;;;-2.60;99.90;;;;;;5033868;28;20040;-87
2024/01/18 02:06:51;;;;;;;22.92;21.52;;;-2.60;99.90;;;;;;5033319;28;20445;-87
2024/01/18 02:09:18;;;;;;;21.70;20.35;;;-2.60;99.90;;;;;;5033047;28;20497;-87
2024/01/18 02:11:44;;;;;;;21.23;19.90;;;-2.60;99.90;;;;;;5049596;28;20025;-87
2024/01/18 02:14:10;;;;;;;21.02;19.83;;;-2.60;99.90;;;;;;5049942;28;20037;-88
2024/01/18 02:16:36;;;;;;;21.48;20.13;;;-2.60;99.90;;;;;;5046484;28;20037;-87
2024/01/18 02:19:04;;;;;;;21.15;19.85;;;-2.70;99.90;;;;;;5032951;28;20511;-87
2024/01/18 02:21:30;;;;;;;21.60;20.13;;;-2.70;99.90;;;;;;5049684;28;20083;-87
2024/01/18 02:24:17;;;;;;;21.38;20.17;;;-2.80;99.90;;;;;;5049959;28;20072;-87
2024/01/18 02:26:43;;;;;;;19.67;18.58;;;-2.80;99.90;;;;;;5040468;28;20481;-89
2024/01/18 02:29:09;;;;;;;20.95;19.83;;;-2.80;99.90;;;;;;5032801;28;20123;-87
2024/01/18 02:31:34;;;;;;;20.00;18.77;;;-2.90;99.90;;;;;;5047867;28;20032;-87
2024/01/18 02:34:00;;;;;;;21.23;19.63;;;-2.80;99.90;;;;;;5052390;28;20119;-87
2024/01/18 02:36:26;;;;;;;21.70;20.40;;;-2.70;99.90;;;;;;5053712;28;20051;-87
2024/01/18 02:38:52;;;;;;;21.50;20.17;;;-2.70;99.90;;;;;;5031046;28;20064;-87
2024/01/18 02:41:19;;;;;;;22.88;21.30;;;-2.70;99.90;;;;;;5053397;28;20057;-89
2024/01/18 02:43:45;;;;;;;22.10;20.80;;;-2.80;99.90;;;;;;5035037;28;20128;-89
2024/01/18 02:46:15;;;;;;;22.23;20.63;;;-2.80;99.90;;;;;;5059719;28;20056;-89
2024/01/18 02:48:41;;;;;;;21.80;20.60;;;-2.80;99.90;;;;;;5034024;28;20033;-89
2024/01/18 02:51:07;;;;;;;21.52;20.42;;;-2.90;99.90;;;;;;5052937;28;20407;-86
2024/01/18 02:53:32;;;;;;;23.75;22.30;;;-2.90;99.90;;;;;;5036202;28;20048;-86
2024/01/18 02:55:58;;;;;;;22.23;20.83;;;-2.90;99.90;;;;;;5052722;28;20588;-89
2024/01/18 02:58:24;;;;;;;22.27;20.75;;;-2.90;99.90;;;;;;5036004;28;20123;-90
2024/01/18 03:00:49;;;;;;;22.27;20.98;;;-2.80;99.90;;;;;;5039282;28;20071;-90
2024/01/18 03:03:15;;;;;;;22.50;21.30;;;-2.90;99.90;;;;;;5050862;28;20044;-89
2024/01/18 03:05:41;;;;;;;24.27;22.98;;;-2.90;99.90;;;;;;5034817;28;20036;-90
2024/01/18 03:08:07;;;;;;;24.80;23.33;;;-2.80;99.90;;;;;;5052632;28;20072;-90
2024/01/18 03:10:33;;;;;;;25.20;23.80;;;-2.80;99.90;;;;;;5070967;28;20075;-89
2024/01/18 03:12:58;;;;;;;26.27;24.70;;;-2.80;99.90;;;;;;5032539;28;20041;-90
2024/01/18 03:15:24;;;;;;;24.15;22.77;;;-2.70;99.90;;;;;;5050486;28;20102;-87
2024/01/18 03:17:50;;;;;;;25.02;23.45;;;-2.70;99.90;;;;;;5033581;28;20150;-87
2024/01/18 03:20:15;;;;;;;23.50;22.17;;;-2.70;99.90;;;;;;5036367;28;20040;-88
2024/01/18 03:22:41;;;;;;;23.40;22.00;;;-2.70;99.90;;;;;;5036449;28;20044;-87
2024/01/18 03:25:07;;;;;;;23.27;21.88;;;-2.70;99.90;;;;;;5027070;28;20037;-90
2024/01/18 03:27:34;;;;;;;22.80;21.60;;;-2.70;99.90;;;;;;5051060;28;20063;-88
2024/01/18 03:30:00;;;;;;;25.05;23.63;;;-2.70;99.90;;;;;;5036235;28;20047;-90
2024/01/18 03:32:25;;;;;;;26.27;24.55;;;-2.60;99.90;;;;;;5070421;28;20040;-90
2024/01/18 03:34:51;;;;;;;25.60;24.10;;;-2.50;99.90;;;;;;5048711;28;20037;-90
2024/01/18 03:37:17;;;;;;;26.50;25.10;;;-2.40;99.90;;;;;;5050817;28;20067;-89
2024/01/18 03:39:43;;;;;;;24.30;22.98;;;-2.30;99.90;;;;;;5036063;28;20045;-90
2024/01/18 03:42:09;;;;;;;24.90;23.58;;;-2.20;99.90;;;;;;5026764;28;20041;-90
2024/01/18 03:44:35;;;;;;;24.75;23.35;;;-2.10;99.90;;;;;;5047287;28;20543;-90
2024/01/18 03:47:01;;;;;;;26.23;24.63;;;-2.00;99.90;;;;;;5034717;28;20369;-90
2024/01/18 03:49:27;;;;;;;28.20;26.48;;;-2.00;99.90;;;;;;5034226;28;20047;-90
2024/01/18 03:51:53;;;;;;;25.48;24.15;;;-1.90;99.90;;;;;;5036293;28;20044;-91
2024/01/18 03:54:18;;;;;;;25.80;24.40;;;-1.90;99.90;;;;;;5035794;28;20070;-90
2024/01/18 03:56:44;;;;;;;27.85;26.27;;;-1.90;99.90;;;;;;5045539;28;20476;-91
2024/01/18 03:59:14;;;;;;;27.00;25.60;;;-1.90;99.90;;;;;;5050218;28;20047;-91
2024/01/18 04:01:39;;;;;;;27.13;25.70;;;-1.80;99.90;;;;;;5051870;28;20050;-91
2024/01/18 04:04:05;;;;;;;26.67;25.17;;;-1.80;99.90;;;;;;5035466;28;20037;-91
2024/01/18 04:06:31;;;;;;;27.15;25.55;;;-1.70;99.90;;;;;;5035881;28;20075;-91
2024/01/18 04:08:56;;;;;;;27.80;26.38;;;-1.70;99.90;;;;;;5033259;28;20100;-91
2024/01/18 04:11:22;;;;;;;26.17;24.75;;;-1.70;99.90;;;;;;5048066;28;20072;-91
2024/01/18 04:13:47;;;;;;;27.42;25.83;;;-1.70;99.90;;;;;;5066259;28;20106;-91
2024/01/18 04:16:13;;;;;;;24.05;22.85;;;-1.70;99.90;;;;;;5034929;28;20463;-91
2024/01/18 04:18:39;;;;;;;26.35;24.88;;;-1.70;99.90;;;;;;5048752;28;20127;-91
2024/01/18 04:21:04;;;;;;;25.33;23.90;;;-1.80;99.90;;;;;;5044483;28;20099;-91
2024/01/18 04:23:30;;;;;;;23.42;22.13;;;-1.80;99.90;;;;;;5041751;28;20051;-91
2024/01/18 04:25:56;;;;;;;21.77;20.67;;;-1.80;99.90;;;;;;5048852;28;20064;-91
2024/01/18 04:28:22;;;;;;;22.75;21.25;;;-1.90;99.90;;;;;;5045609;28;20029;-91
2024/01/18 04:30:48;;;;;;;20.85;19.67;;;-2.10;99.90;;;;;;5047632;28;20508;-90
2024/01/18 04:33:14;;;;;;;20.02;18.88;;;-2.20;99.90;;;;;;5051886;28;20048;-91
2024/01/18 04:35:40;;;;;;;22.38;21.10;;;-2.30;99.90;;;;;;5032117;28;20520;-91
2024/01/18 04:38:06;;;;;;;19.90;18.83;;;-2.40;99.90;;;;;;5060904;28;20061;-90
2024/01/18 04:40:33;;;;;;;20.58;19.23;;;-2.50;99.90;;;;;;5028944;28;20036;-89
2024/01/18 04:42:59;;;;;;;19.90;18.80;;;-2.60;99.90;;;;;;5033240;28;20106;-91
2024/01/18 04:45:24;;;;;;;21.02;19.83;;;-2.70;99.90;;;;;;5051539;28;20041;-90
2024/01/18 04:47:52;;;;;;;21.67;20.58;;;-2.80;99.90;;;;;;5062441;28;20059;-90
2024/01/18 04:50:20;;;;;;;19.85;18.65;;;-2.90;99.90;;;;;;5049211;28;20049;-90
2024/01/18 04:52:47;;;;;;;21.52;20.08;;;-2.90;99.90;;;;;;5048759;28;20437;-90
2024/01/18 04:55:13;;;;;;;20.40;19.13;;;-2.90;99.90;;;;;;5044987;28;20123;-90
2024/01/18 04:57:39;;;;;;;19.10;18.05;;;-2.90;99.90;;;;;;5028924;28;20124;-90
2024/01/18 05:00:11;;;;;;;19.23;18.08;;;-3.00;99.90;;;;;;5065948;28;20040;-90
2024/01/18 05:02:38;;;;;;;20.48;19.27;;;-3.10;99.90;;;;;;5050607;28;20052;-90
2024/01/18 05:05:04;;;;;;;19.67;18.58;;;-3.10;99.90;;;;;;5068876;28;20393;-90
2024/01/18 05:07:30;;;;;;;19.83;18.73;;;-3.10;99.90;;;;;;5032416;28;20151;-90
2024/01/18 05:09:57;;;;;;;18.85;17.77;;;-3.20;99.90;;;;;;5046997;28;20036;-90
2024/01/18 05:12:23;;;;;;;20.15;18.95;;;-3.10;99.90;;;;;;5030894;28;20044;-90
2024/01/18 05:14:48;;;;;;;20.25;19.15;;;-3.10;99.90;;;;;;5043660;28;20036;-90
2024/01/18 05:17:16;;;;;;;19.48;18.38;;;-3.20;99.90;;;;;;5060828;28;20476;-89
2024/01/18 05:19:42;;;;;;;21.92;20.73;;;-3.20;99.90;;;;;;5067370;28;20035;-90
2024/01/18 05:22:07;;;;;;;22.00;20.70;;;-3.20;99.90;;;;;;5028126;28;20041;-90
2024/01/18 05:24:33;;;;;;;21.38;20.27;;;-3.20;99.90;;;;;;5042678;28;20569;-89
2024/01/18 05:26:59;;;;;;;20.05;18.95;;;-3.20;99.90;;;;;;5041075;28;20033;-90
2024/01/18 05:29:24;;;;;;;21.85;20.55;;;-3.20;99.90;;;;;;5051186;28;20044;-90
2024/01/18 05:31:51;;;;;;;20.17;19.02;;;-3.20;99.90;;;;;;5067880;28;20408;-90
2024/01/18 05:34:17;;;;;;;22.05;20.85;;;-3.20;99.90;;;;;;5049639;28;20040;-90
2024/01/18 05:36:42;;;;;;;25.17;23.83;;;-3.10;99.90;;;;;;5039836;28;20044;-88
2024/01/18 05:39:08;;;;;;;28.60;26.90;;;-2.80;99.90;;;;;;5033493;28;20477;-90
2024/01/18 05:41:34;;;;;;;27.67;26.27;;;-2.50;99.90;;;;;;5033182;28;20071;-90
2024/01/18 05:44:00;;;;;;;29.30;27.90;;;-2.20;99.90;;;;;;5051153;28;20121;-90
2024/01/18 05:46:26;;;;;;;31.63;30.02;;;-1.90;99.90;;;;;;5034448;28;20033;-91
2024/01/18 05:48:51;;;;;;;30.88;29.00;;;-1.80;99.90;;;;;;5052381;28;20052;-91
2024/01/18 05:51:17;;;;;;;32.20;30.40;;;-1.60;99.90;;;;;;5060628;28;20432;-90
2024/01/18 05:53:43;;;;;;;29.30;27.75;;;-1.50;99.90;;;;;;5069561;28;20435;-91
2024/01/18 05:56:09;;;;;;;31.38;29.77;;;-1.30;99.90;;;;;;5049094;28;20115;-91
2024/01/18 05:58:34;;;;;;;27.95;26.45;;;-1.20;99.90;;;;;;5032992;28;20128;-91
2024/01/18 06:01:03;;;;;;;27.13;25.63;;;-1.00;99.90;;;;;;5046225;28;20579;-90
2024/01/18 06:03:29;;;;;;;28.67;27.20;;;-0.90;99.90;;;;;;5034682;28;20075;-89
2024/01/18 06:05:55;;;;;;;28.02;26.58;;;-0.80;99.90;;;;;;5031619;28;20052;-88
2024/01/18 06:08:20;;;;;;;26.15;24.85;;;-0.80;99.90;;;;;;5060921;28;20045;-91
2024/01/18 06:10:46;;;;;;;27.85;26.38;;;-0.80;99.90;;;;;;5036689;28;20062;-91
2024/01/18 06:13:12;;;;;;;27.10;25.40;;;-0.80;99.90;;;;;;5030559;28;20489;-91
2024/01/18 06:15:39;;;;;;;26.75;25.33;;;-0.70;99.90;;;;;;5067946;28;20849;-91
2024/01/18 06:18:05;;;;;;;24.45;23.15;;;-0.70;99.90;;;;;;5048269;28;20041;-91
2024/01/18 06:20:31;;;;;;;24.52;23.33;;;-0.70;99.90;;;;;;5051325;28;20040;-91
2024/01/18 06:23:00;;;;;;;24.27;23.08;;;-0.80;99.90;;;;;;5032557;28;20041;-90
2024/01/18 06:25:26;;;;;;;23.08;21.88;;;-0.90;99.90;;;;;;5036352;28;20044;-90
2024/01/18 06:27:51;;;;;;;22.92;21.73;;;-1.00;99.90;;;;;;5037570;28;20032;-90
2024/01/18 06:30:18;;;;;;;23.48;22.27;;;-1.00;99.90;;;;;;5054680;28;20037;-90
2024/01/18 06:32:44;;;;;;;22.67;21.48;;;-1.10;99.90;;;;;;5033752;28;20385;-90
2024/01/18 06:35:10;;;;;;;20.80;19.70;;;-1.20;99.90;;;;;;5049245;28;20398;-90
2024/01/18 06:37:39;;;;;;;21.40;20.25;;;-1.20;99.90;;;;;;5054486;28;20170;-90
2024/01/18 06:40:06;;;;;;;19.20;18.20;;;-1.30;99.90;;;;;;5053191;28;20465;-90
2024/01/18 06:42:31;;;;;;;19.65;18.48;;;-1.50;99.90;;;;;;5051823;28;20091;-90
2024/01/18 06:44:57;;;;;;;18.60;17.60;;;-1.60;99.90;;;;;;5066265;28;20295;-90
2024/01/18 06:47:23;;;;;;;19.48;18.30;;;-1.70;99.90;;;;;;5031996;28;20065;-89
2024/01/18 06:49:49;;;;;;;18.20;17.10;;;-1.90;99.90;;;;;;5036512;28;20036;-90
2024/01/18 06:52:14;;;;;;;18.67;17.67;;;-2.00;99.90;;;;;;5051947;28;20115;-90
2024/01/18 06:54:44;;;;;;;19.35;18.30;;;-2.00;99.90;;;;;;5047715;28;20043;-90
2024/01/18 06:57:09;;;;;;;18.83;17.73;;;-2.10;99.90;;;;;;5046760;28;20127;-89
2024/01/18 06:59:35;;;;;;;18.40;17.40;;;-2.10;99.90;;;;;;5047677;28;20119;-90
2024/01/18 07:02:01;;;;;;;19.08;17.98;;;-2.20;99.90;;;;;;5052683;28;20036;-90
2024/01/18 07:04:26;;;;;;;19.00;17.83;;;-2.20;99.90;;;;;;5033338;28;20581;-89
2024/01/18 07:06:52;;;;;;;19.17;18.17;;;-2.20;99.90;;;;;;5051931;28;20039;-90
2024/01/18 07:09:18;;;;;;;18.80;17.65;;;-2.20;99.90;;;;;;5049291;28;20062;-89
2024/01/18 07:11:43;;;;;;;19.98;18.58;;;-2.30;99.90;;;;;;5031428;28;20036;-89
2024/01/18 07:14:09;;;;;;;19.25;18.25;;;-2.30;99.90;;;;;;5053311;28;20557;-88
2024/01/18 07:16:35;;;;;;;20.35;19.15;;;-2.40;99.90;;;;;;5071193;28;20083;-89
2024/01/18 07:19:00;;;;;;;19.65;18.45;;;-2.40;99.90;;;;;;5059999;28;20470;-89
2024/01/18 07:21:26;;;;;;;20.67;19.58;;;-2.30;99.90;;;;;;5048422;28;20037;-89
2024/01/18 07:23:51;;;;;;;26.85;24.52;;;-2.20;99.90;;;;;;5033270;28;20429;-89
2024/01/18 07:26:18;;;;;;;25.48;23.65;;;-2.10;99.90;;;;;;5033093;28;20041;-89
2024/01/18 07:28:44;;;;;;;24.67;22.88;;;-2.10;99.90;;;;;;5031922;28;20040;-89
2024/01/18 07:31:10;;;;;;;24.15;22.55;;;-2.00;99.90;;;;;;5035414;28;20469;-89
2024/01/18 07:33:37;;;;;;;37.60;35.58;;;-1.90;99.90;;;;;;5068377;28;20076;-90
2024/01/18 07:36:03;;;;;;;45.33;42.58;;;-1.80;99.90;;;;;;5051228;28;20044;-90
2024/01/18 07:38:29;;;;;;;114.70;104.85;;;-1.50;99.90;;;;;;5022830;28;20053;-88
2024/01/18 07:40:54;;;;;;;33.83;32.00;;;-1.20;99.90;;;;;;5027261;28;20067;-86
2024/01/18 07:43:20;;;;;;;31.02;29.23;;;-0.80;99.90;;;;;;5013539;28;20040;-88
2024/01/18 07:45:45;;;;;;;27.33;25.83;;;-0.50;99.90;;;;;;5032463;28;20051;-88
2024/01/18 07:48:11;;;;;;;27.25;25.85;;;-0.40;99.90;;;;;;5031012;28;20044;-87
2024/01/18 07:50:37;;;;;;;28.70;26.85;;;-0.20;99.90;;;;;;5013481;28;20044;-88
2024/01/18 07:53:03;;;;;;;25.77;24.48;;;-0.10;99.90;;;;;;5000121;28;20037;-88
2024/01/18 07:55:29;;;;;;;27.10;25.40;;;0.00;99.90;;;;;;5046999;28;20455;-87
2024/01/18 07:57:55;;;;;;;27.15;25.77;;;0.00;99.90;;;;;;5030567;28;20413;-90
2024/01/18 08:00:21;;;;;;;26.90;25.48;;;-0.10;99.90;;;;;;5020982;28;20124;-88
2024/01/18 08:02:46;;;;;;;29.63;27.70;;;-0.20;99.90;;;;;;5024081;28;20048;-88
2024/01/18 08:05:12;;;;;;;27.40;25.80;;;-0.30;99.90;;;;;;5048963;28;20563;-87
2024/01/18 08:07:38;;;;;;;26.40;25.00;;;-0.40;99.90;;;;;;5024912;28;20354;-86
2024/01/18 08:10:06;;;;;;;25.35;23.92;;;-0.40;99.90;;;;;;5035763;28;20091;-88
2024/01/18 08:12:31;;;;;;;23.63;22.40;;;-0.50;99.90;;;;;;5022160;28;20065;-87
2024/01/18 08:14:57;;;;;;;24.05;22.65;;;-0.60;99.90;;;;;;5007999;28;20095;-88
2024/01/18 08:17:23;;;;;;;26.67;25.27;;;-0.70;99.90;;;;;;5018662;28;20489;-88
2024/01/18 08:19:48;;;;;;;23.98;22.67;;;-0.70;99.90;;;;;;5009537;28;20152;-87
2024/01/18 08:22:15;;;;;;;23.90;22.38;;;-0.70;99.90;;;;;;5004461;28;20463;-87
2024/01/18 08:24:41;;;;;;;24.50;23.10;;;-0.60;99.90;;;;;;5021101;28;20389;-86
2024/01/18 08:27:07;;;;;;;23.00;21.60;;;-0.50;99.90;;;;;;5018923;28;20042;-86
2024/01/18 08:29:34;;;;;;;22.58;21.13;;;-0.40;99.90;;;;;;5022009;28;20871;-87
2024/01/18 08:32:01;;;;;;;24.30;22.80;;;-0.40;99.90;;;;;;5044552;28;20037;-87
2024/01/18 08:34:27;;;;;;;22.27;20.98;;;-0.20;99.90;;;;;;5009503;28;20128;-87
2024/01/18 08:36:52;;;;;;;22.35;20.98;;;-0.10;99.90;;;;;;5025040;28;20136;-87
2024/01/18 08:39:19;;;;;;;20.05;18.92;;;0.10;99.90;;;;;;5018036;28;20516;-86
2024/01/18 08:41:45;;;;;;;21.00;19.73;;;0.20;99.90;;;;;;5022160;28;20049;-87
2024/01/18 08:44:10;;;;;;;19.95;18.60;;;0.30;99.90;;;;;;5019066;28;20477;-87
2024/01/18 08:46:39;;;;;;;21.83;20.52;;;0.40;99.90;;;;;;5049105;28;20043;-88
2024/01/18 08:49:04;;;;;;;19.20;18.10;;;0.40;99.90;;;;;;5039812;28;20099;-88
2024/01/18 08:51:30;;;;;;;19.95;18.60;;;0.40;99.90;;;;;;5031579;28;20079;-88
2024/01/18 08:53:55;;;;;;;18.92;17.75;;;0.50;99.90;;;;;;5035875;28;20059;-88
2024/01/18 08:56:21;;;;;;;19.90;18.70;;;0.50;99.90;;;;;;5023620;28;20044;-88
2024/01/18 08:58:47;;;;;;;19.15;17.83;;;0.50;99.90;;;;;;5020903;28;20099;-89
2024/01/18 09:01:13;;;;;;;19.50;18.23;;;0.50;99.90;;;;;;5017754;28;20037;-89
2024/01/18 09:03:39;;;;;;;19.40;17.98;;;0.60;99.90;;;;;;5050180;28;20048;-89
2024/01/18 09:06:05;;;;;;;19.88;18.67;;;0.60;99.90;;;;;;5049530;28;20041;-90
2024/01/18 09:08:34;;;;;;;20.02;18.63;;;0.70;99.90;;;;;;5026148;28;20126;-89
2024/01/18 09:10:59;;;;;;;21.05;19.50;;;0.80;99.90;;;;;;5047367;28;20151;-91
2024/01/18 09:13:25;;;;;;;18.00;16.70;;;0.90;99.90;;;;;;5043390;28;20124;-90
2024/01/18 09:15:51;;;;;;;18.50;17.30;;;1.00;99.90;;;;;;5045981;28;20091;-90
2024/01/18 09:18:17;;;;;;;18.38;17.25;;;1.00;99.90;;;;;;5033453;28;20053;-91
2024/01/18 09:20:45;;;;;;;16.90;15.73;;;1.00;99.90;;;;;;5045938;28;20037;-90
2024/01/18 09:23:14;;;;;;;22.00;20.45;;;1.00;99.90;;;;;;5029999;28;20831;-90
2024/01/18 09:25:42;;;;;;;21.08;19.52;;;1.10;99.90;;;;;;5030168;28;20075;-91
2024/01/18 09:28:08;;;;;;;21.60;20.27;;;1.20;99.90;;;;;;5042835;28;20045;-90
2024/01/18 09:30:34;;;;;;;20.60;19.50;;;1.30;99.90;;;;;;5041988;28;20411;-91
2024/01/18 09:33:01;;;;;;;22.17;20.77;;;1.40;99.90;;;;;;5021412;28;20045;-92
2024/01/18 09:35:27;;;;;;;23.48;21.83;;;1.60;99.90;;;;;;5023360;28;20132;-91
2024/01/18 09:37:53;;;;;;;22.10;20.75;;;1.80;99.90;;;;;;5024519;28;20111;-91
2024/01/18 09:40:19;;;;;;;21.60;20.20;;;2.10;99.90;;;;;;5037379;28;20033;-91
2024/01/18 09:42:47;;;;;;;21.55;19.90;;;2.10;99.90;;;;;;5041997;28;20044;-91
2024/01/18 09:45:14;;;;;;;19.98;18.67;;;2.00;99.90;;;;;;5022245;28;20106;-91
2024/01/18 09:47:44;;;;;;;18.55;17.35;;;2.00;99.90;;;;;;5042372;28;20068;-91
2024/01/18 09:50:10;;;;;;;18.80;17.50;;;2.00;99.90;;;;;;5016949;28;20073;-92
2024/01/18 09:52:37;;;;;;;20.48;19.27;;;2.00;99.90;;;;;;5035943;28;20044;-91
2024/01/18 09:55:04;;;;;;;20.35;18.88;;;2.00;99.90;;;;;;5023211;28;20524;-91
2024/01/18 09:57:33;;;;;;;18.52;17.30;;;2.20;99.90;;;;;;5020008;28;20405;-92
2024/01/18 10:00:03;;;;;;;19.42;18.02;;;2.20;99.90;;;;;;5042453;28;20087;-91
2024/01/18 10:02:29;;;;;;;19.10;17.70;;;2.30;99.90;;;;;;5025595;28;20141;-91
2024/01/18 10:05:00;;;;;;;19.60;18.10;;;2.30;99.90;;;;;;5019514;28;20047;-91
2024/01/18 10:07:28;;;;;;;20.98;19.48;;;2.20;99.90;;;;;;5041009;28;20029;-91
2024/01/18 10:09:54;;;;;;;19.10;17.70;;;2.00;99.90;;;;;;5022300;28;20425;-91
2024/01/18 10:12:20;;;;;;;19.15;17.90;;;1.90;99.90;;;;;;5038080;28;20533;-91
2024/01/18 10:14:48;;;;;;;18.77;17.58;;;1.70;99.90;;;;;;5028244;28;20041;-91
2024/01/18 10:22:04;;;;;;;20.00;18.55;;;1.80;99.90;;;;;;4981132;28;20050;-89
2024/01/18 10:24:40;;;;;;;17.98;16.55;;;2.30;99.90;;;;;;4952989;28;20054;-89
2024/01/18 10:27:06;;;;;;;17.95;16.30;;;2.70;99.90;;;;;;4987504;28;20178;-88
2024/01/18 10:29:35;;;;;;;17.85;16.60;;;2.70;99.90;;;;;;4986764;28;20052;-88
2024/01/18 10:32:02;;;;;;;17.45;16.20;;;2.70;99.90;;;;;;4967514;28;20062;-88
2024/01/18 10:34:35;;;;;;;18.13;16.80;;;2.50;99.90;;;;;;4963588;28;20153;-88
2024/01/18 10:37:01;;;;;;;18.10;16.80;;;2.40;99.90;;;;;;4977305;28;20050;-88
2024/01/18 10:39:26;;;;;;;18.27;16.98;;;2.40;99.90;;;;;;4986936;28;20588;-88
2024/01/18 10:41:52;;;;;;;17.92;16.58;;;2.60;99.90;;;;;;4976379;28;20043;-88
2024/01/18 10:44:18;;;;;;;19.05;17.40;;;2.80;99.90;;;;;;4966019;28;20643;-88
2024/01/18 10:46:46;;;;;;;16.30;14.98;;;3.10;99.90;;;;;;4986044;28;20510;-87
2024/01/18 10:49:12;;;;;;;15.95;14.65;;;3.50;99.90;;;;;;5011332;28;20136;-87
2024/01/18 10:51:42;;;;;;;14.60;13.50;;;3.80;99.90;;;;;;5041866;28;20064;-86
2024/01/18 10:54:09;;;;;;;13.52;12.43;;;4.10;99.90;;;;;;5016394;28;20116;-86
2024/01/18 10:56:36;;;;;;;12.75;11.75;;;4.30;99.90;;;;;;5021517;28;20255;-86
2024/01/18 10:59:04;;;;;;;13.95;12.98;;;4.10;99.90;;;;;;5032379;28;20116;-85
2024/01/18 11:01:31;;;;;;;13.90;12.70;;;3.90;99.90;;;;;;5015485;28;20052;-85
2024/01/18 11:03:58;;;;;;;12.90;12.00;;;3.90;99.90;;;;;;5022505;28;20079;-85
2024/01/18 11:06:25;;;;;;;14.32;13.13;;;3.80;99.90;;;;;;5049977;28;20037;-85
2024/01/18 11:08:51;;;;;;;17.13;14.73;;;3.80;99.90;;;;;;5040344;28;20037;-84
2024/01/18 11:11:18;;;;;;;15.32;13.93;;;3.80;99.90;;;;;;5024535;28;20244;-85
2024/01/18 11:13:45;;;;;;;27.20;20.38;;;4.00;99.90;;;;;;5024779;28;20039;-84
2024/01/18 11:16:12;;;;;;;13.50;12.50;;;4.20;99.90;;;;;;5048705;28;20049;-85
2024/01/18 11:18:38;;;;;;;14.05;13.05;;;4.20;99.90;;;;;;5033109;28;20102;-84
2024/01/18 11:21:04;;;;;;;16.50;15.00;;;4.10;99.90;;;;;;5044776;28;20562;-84
2024/01/18 11:23:35;;;;;;;14.07;13.07;;;3.90;99.90;;;;;;5028795;28;20041;-84
2024/01/18 11:26:04;;;;;;;13.70;12.60;;;3.90;99.90;;;;;;5046680;28;20041;-85
2024/01/18 11:28:30;;;;;;;12.77;11.88;;;4.10;99.90;;;;;;5030267;28;20061;-84
2024/01/18 11:30:56;;;;;;;13.73;12.40;;;4.40;99.90;;;;;;5018315;28;20120;-84
2024/01/18 11:33:22;;;;;;;12.68;11.60;;;4.60;99.90;;;;;;5026092;28;20072;-84
2024/01/18 11:35:49;;;;;;;12.43;11.30;;;4.70;99.90;;;;;;5049492;28;20037;-84
2024/01/18 11:38:19;;;;;;;11.60;10.65;;;5.00;99.90;;;;;;5021828;28;20057;-83
2024/01/18 11:40:46;;;;;;;12.20;11.18;;;5.30;99.90;;;;;;5034237;28;20059;-85
2024/01/18 11:43:13;;;;;;;10.65;9.68;;;5.40;99.90;;;;;;5050692;28;20044;-85
2024/01/18 11:45:41;;;;;;;10.05;9.15;;;5.60;99.90;;;;;;5041857;28;20392;-85
2024/01/18 11:48:07;;;;;;;79.55;41.08;;;5.80;99.90;;;;;;5033035;28;20033;-84
2024/01/18 11:50:33;;;;;;;16.00;14.07;;;5.90;99.90;;;;;;5046110;28;20062;-84
2024/01/18 11:53:00;;;;;;;10.98;10.18;;;5.90;99.90;;;;;;5060913;28;20082;-84
2024/01/18 11:55:30;;;;;;;10.48;9.75;;;5.90;99.90;;;;;;5041648;28;20503;-84
2024/01/18 11:57:57;;;;;;;11.35;10.35;;;5.90;99.90;;;;;;5029613;28;20047;-83
2024/01/18 12:00:22;;;;;;;10.95;10.05;;;5.90;99.90;;;;;;5046170;28;20063;-84
2024/01/18 12:02:48;;;;;;;11.77;10.88;;;5.80;99.90;;;;;;5041549;28;20499;-84
2024/01/18 12:05:15;;;;;;;10.35;9.52;;;5.80;99.90;;;;;;5043384;28;20536;-84
2024/01/18 12:07:43;;;;;;;11.15;9.98;;;5.70;99.90;;;;;;5064325;28;20485;-84
2024/01/18 12:10:10;;;;;;;11.27;10.35;;;5.60;99.90;;;;;;5029466;28;20097;-84
2024/01/18 12:12:39;;;;;;;10.05;9.25;;;5.60;99.90;;;;;;5027270;28;20068;-84
2024/01/18 12:15:05;;;;;;;10.10;9.30;;;5.60;99.90;;;;;;5027886;28;20075;-83
2024/01/18 12:17:31;;;;;;;10.05;9.02;;;5.70;99.90;;;;;;5053256;28;20086;-84
2024/01/18 12:19:57;;;;;;;10.50;9.50;;;5.50;99.90;;;;;;5027302;28;20037;-84
2024/01/18 12:22:25;;;;;;;9.98;9.15;;;5.50;99.90;;;;;;5024374;28;20106;-84
2024/01/18 12:24:51;;;;;;;10.52;9.70;;;5.40;99.90;;;;;;5030609;28;20040;-84
2024/01/18 12:27:18;;;;;;;11.50;10.70;;;5.40;99.90;;;;;;5047394;28;20048;-83
2024/01/18 12:29:44;;;;;;;11.07;10.02;;;5.40;99.90;;;;;;5045278;28;20499;-83